sensor_id;sensor_type;location;lat;lon;timestamp;temperature;humidity
71727;DHT22;65960;43.502;3.712;2022-12-13T00:01:23;2.50;92.70
71727;DHT22;65960;43.502;3.712;2022-12-13T00:03:52;2.50;92.70
71727;DHT22;65960;43.502;3.712;2022-12-13T00:06:18;2.50;92.70
71727;DHT22;65960;43.502;3.712;2022-12-13T00:08:44;2.50;92.70
71727;DHT22;65960;43.502;3.712;2022-12-13T00:11:11;2.50;92.70
71727;DHT22;65960;43.502;3.712;2022-12-13T00:13:38;2.50;92.70
71727;DHT22;65960;43.502;3.712;2022-12-13T00:16:06;2.50;92.70
71727;DHT22;65960;43.502;3.712;2022-12-13T00:18:33;2.50;92.70
71727;DHT22;65960;43.502;3.712;2022-12-13T00:21:00;2.50;92.70
71727;DHT22;65960;43.502;3.712;2022-12-13T00:23:28;2.50;92.70
71727;DHT22;65960;43.502;3.712;2022-12-13T00:25:54;2.50;92.70
71727;DHT22;65960;43.502;3.712;2022-12-13T00:28:20;2.50;92.80
71727;DHT22;65960;43.502;3.712;2022-12-13T00:30:45;2.50;92.80
71727;DHT22;65960;43.502;3.712;2022-12-13T00:33:11;2.60;92.80
71727;DHT22;65960;43.502;3.712;2022-12-13T00:35:40;2.60;92.80
71727;DHT22;65960;43.502;3.712;2022-12-13T00:38:06;2.60;92.80
71727;DHT22;65960;43.502;3.712;2022-12-13T00:40:32;2.60;92.80
71727;DHT22;65960;43.502;3.712;2022-12-13T00:42:58;2.60;92.80
71727;DHT22;65960;43.502;3.712;2022-12-13T00:45:23;2.60;92.80
71727;DHT22;65960;43.502;3.712;2022-12-13T00:47:49;2.60;92.80
71727;DHT22;65960;43.502;3.712;2022-12-13T00:50:15;2.70;92.90
71727;DHT22;65960;43.502;3.712;2022-12-13T00:52:41;2.70;92.80
71727;DHT22;65960;43.502;3.712;2022-12-13T00:55:07;2.70;92.90
71727;DHT22;65960;43.502;3.712;2022-12-13T00:57:32;2.60;92.90
71727;DHT22;65960;43.502;3.712;2022-12-13T00:59:59;2.60;92.90
71727;DHT22;65960;43.502;3.712;2022-12-13T01:02:25;2.70;92.90
71727;DHT22;65960;43.502;3.712;2022-12-13T01:04:51;2.70;92.90
71727;DHT22;65960;43.502;3.712;2022-12-13T01:07:16;2.70;92.90
71727;DHT22;65960;43.502;3.712;2022-12-13T01:09:42;2.70;93.00
71727;DHT22;65960;43.502;3.712;2022-12-13T01:12:09;2.70;92.90
71727;DHT22;65960;43.502;3.712;2022-12-13T01:14:38;2.70;92.90
71727;DHT22;65960;43.502;3.712;2022-12-13T01:17:05;2.70;93.00
71727;DHT22;65960;43.502;3.712;2022-12-13T01:19:30;2.70;93.00
71727;DHT22;65960;43.502;3.712;2022-12-13T01:21:59;2.70;93.00
71727;DHT22;65960;43.502;3.712;2022-12-13T01:24:25;2.70;93.00
71727;DHT22;65960;43.502;3.712;2022-12-13T01:26:51;2.70;93.00
71727;DHT22;65960;43.502;3.712;2022-12-13T01:29:19;2.70;93.00
71727;DHT22;65960;43.502;3.712;2022-12-13T01:31:45;2.70;93.00
71727;DHT22;65960;43.502;3.712;2022-12-13T01:34:12;2.70;93.00
71727;DHT22;65960;43.502;3.712;2022-12-13T01:36:40;2.70;93.00
71727;DHT22;65960;43.502;3.712;2022-12-13T01:39:07;2.70;93.00
71727;DHT22;65960;43.502;3.712;2022-12-13T01:41:34;2.70;93.00
71727;DHT22;65960;43.502;3.712;2022-12-13T01:47:11;2.80;93.00
71727;DHT22;65960;43.502;3.712;2022-12-13T01:49:38;2.80;93.00
71727;DHT22;65960;43.502;3.712;2022-12-13T01:52:05;2.80;93.00
71727;DHT22;65960;43.502;3.712;2022-12-13T01:54:38;2.80;93.00
71727;DHT22;65960;43.502;3.712;2022-12-13T01:57:07;2.80;93.00
71727;DHT22;65960;43.502;3.712;2022-12-13T01:59:38;2.90;93.00
71727;DHT22;65960;43.502;3.712;2022-12-13T02:02:06;2.90;93.00
71727;DHT22;65960;43.502;3.712;2022-12-13T02:05:01;2.90;93.00
71727;DHT22;65960;43.502;3.712;2022-12-13T02:07:30;2.90;93.10
71727;DHT22;65960;43.502;3.712;2022-12-13T02:09:59;2.80;93.00
71727;DHT22;65960;43.502;3.712;2022-12-13T02:12:28;2.90;93.10
71727;DHT22;65960;43.502;3.712;2022-12-13T02:14:54;2.90;93.10
71727;DHT22;65960;43.502;3.712;2022-12-13T02:17:31;2.90;93.10
71727;DHT22;65960;43.502;3.712;2022-12-13T02:25:44;2.90;93.10
71727;DHT22;65960;43.502;3.712;2022-12-13T02:31:23;2.80;93.20
71727;DHT22;65960;43.502;3.712;2022-12-13T02:34:25;2.90;93.20
71727;DHT22;65960;43.502;3.712;2022-12-13T02:37:14;2.90;93.20
71727;DHT22;65960;43.502;3.712;2022-12-13T02:40:06;2.90;93.20
71727;DHT22;65960;43.502;3.712;2022-12-13T02:42:56;2.90;93.20
71727;DHT22;65960;43.502;3.712;2022-12-13T02:45:33;2.90;93.20
71727;DHT22;65960;43.502;3.712;2022-12-13T02:48:02;2.90;93.20
71727;DHT22;65960;43.502;3.712;2022-12-13T02:50:30;2.90;93.20
71727;DHT22;65960;43.502;3.712;2022-12-13T02:52:57;2.90;93.20
71727;DHT22;65960;43.502;3.712;2022-12-13T02:55:24;2.90;93.20
71727;DHT22;65960;43.502;3.712;2022-12-13T02:57:50;2.90;93.20
71727;DHT22;65960;43.502;3.712;2022-12-13T03:00:19;2.90;93.20
71727;DHT22;65960;43.502;3.712;2022-12-13T03:03:13;2.90;93.20
71727;DHT22;65960;43.502;3.712;2022-12-13T03:11:56;2.90;93.20
71727;DHT22;65960;43.502;3.712;2022-12-13T03:14:48;2.90;93.30
71727;DHT22;65960;43.502;3.712;2022-12-13T03:17:19;2.90;93.30
71727;DHT22;65960;43.502;3.712;2022-12-13T03:19:46;2.90;93.30
71727;DHT22;65960;43.502;3.712;2022-12-13T03:22:11;3.00;93.30
71727;DHT22;65960;43.502;3.712;2022-12-13T03:24:37;3.00;93.30
71727;DHT22;65960;43.502;3.712;2022-12-13T03:27:03;3.00;93.30
71727;DHT22;65960;43.502;3.712;2022-12-13T03:29:29;3.00;93.30
71727;DHT22;65960;43.502;3.712;2022-12-13T03:31:54;3.00;93.40
71727;DHT22;65960;43.502;3.712;2022-12-13T03:34:20;3.00;93.30
71727;DHT22;65960;43.502;3.712;2022-12-13T03:36:46;3.00;93.40
71727;DHT22;65960;43.502;3.712;2022-12-13T03:39:12;3.00;93.40
71727;DHT22;65960;43.502;3.712;2022-12-13T03:41:38;3.00;93.40
71727;DHT22;65960;43.502;3.712;2022-12-13T03:44:05;3.00;93.40
71727;DHT22;65960;43.502;3.712;2022-12-13T03:46:31;3.10;93.40
71727;DHT22;65960;43.502;3.712;2022-12-13T03:48:57;3.10;93.40
71727;DHT22;65960;43.502;3.712;2022-12-13T03:51:23;3.00;93.40
71727;DHT22;65960;43.502;3.712;2022-12-13T03:53:49;3.00;93.40
71727;DHT22;65960;43.502;3.712;2022-12-13T03:56:14;3.00;93.40
71727;DHT22;65960;43.502;3.712;2022-12-13T03:58:41;3.00;93.40
71727;DHT22;65960;43.502;3.712;2022-12-13T04:01:15;3.10;93.40
71727;DHT22;65960;43.502;3.712;2022-12-13T04:03:43;3.10;93.40
71727;DHT22;65960;43.502;3.712;2022-12-13T04:06:09;3.10;93.40
71727;DHT22;65960;43.502;3.712;2022-12-13T04:08:36;3.10;93.50
71727;DHT22;65960;43.502;3.712;2022-12-13T04:11:03;3.10;93.40
71727;DHT22;65960;43.502;3.712;2022-12-13T04:13:49;3.10;93.50
71727;DHT22;65960;43.502;3.712;2022-12-13T04:16:15;3.10;93.50
71727;DHT22;65960;43.502;3.712;2022-12-13T04:18:40;3.10;93.50
71727;DHT22;65960;43.502;3.712;2022-12-13T04:21:06;3.10;93.50
71727;DHT22;65960;43.502;3.712;2022-12-13T04:23:32;3.10;93.50
71727;DHT22;65960;43.502;3.712;2022-12-13T04:25:59;3.20;93.50
71727;DHT22;65960;43.502;3.712;2022-12-13T04:28:25;3.20;93.50
71727;DHT22;65960;43.502;3.712;2022-12-13T04:30:51;3.20;93.50
71727;DHT22;65960;43.502;3.712;2022-12-13T04:33:16;3.20;93.50
71727;DHT22;65960;43.502;3.712;2022-12-13T04:35:46;3.20;93.50
71727;DHT22;65960;43.502;3.712;2022-12-13T04:38:12;3.20;93.50
71727;DHT22;65960;43.502;3.712;2022-12-13T04:40:37;3.20;93.50
71727;DHT22;65960;43.502;3.712;2022-12-13T04:43:03;3.30;93.50
71727;DHT22;65960;43.502;3.712;2022-12-13T04:45:29;3.30;93.60
71727;DHT22;65960;43.502;3.712;2022-12-13T04:47:54;3.30;93.60
71727;DHT22;65960;43.502;3.712;2022-12-13T04:50:20;3.30;93.60
71727;DHT22;65960;43.502;3.712;2022-12-13T04:52:46;3.30;93.60
71727;DHT22;65960;43.502;3.712;2022-12-13T04:55:12;3.30;93.60
71727;DHT22;65960;43.502;3.712;2022-12-13T04:57:38;3.30;93.60
71727;DHT22;65960;43.502;3.712;2022-12-13T05:00:05;3.30;93.60
71727;DHT22;65960;43.502;3.712;2022-12-13T05:02:31;3.30;93.60
71727;DHT22;65960;43.502;3.712;2022-12-13T05:04:57;3.30;93.60
71727;DHT22;65960;43.502;3.712;2022-12-13T05:07:24;3.30;93.60
71727;DHT22;65960;43.502;3.712;2022-12-13T05:09:49;3.30;93.60
71727;DHT22;65960;43.502;3.712;2022-12-13T05:12:15;3.30;93.60
71727;DHT22;65960;43.502;3.712;2022-12-13T05:14:41;3.30;93.60
71727;DHT22;65960;43.502;3.712;2022-12-13T05:17:06;3.40;93.70
71727;DHT22;65960;43.502;3.712;2022-12-13T05:19:32;3.40;93.70
71727;DHT22;65960;43.502;3.712;2022-12-13T05:22:01;3.40;93.70
71727;DHT22;65960;43.502;3.712;2022-12-13T05:24:27;3.40;93.70
71727;DHT22;65960;43.502;3.712;2022-12-13T05:26:52;3.40;93.70
71727;DHT22;65960;43.502;3.712;2022-12-13T05:29:18;3.40;93.70
71727;DHT22;65960;43.502;3.712;2022-12-13T05:31:44;3.40;93.70
71727;DHT22;65960;43.502;3.712;2022-12-13T05:34:09;3.30;93.70
71727;DHT22;65960;43.502;3.712;2022-12-13T05:36:35;3.30;93.70
71727;DHT22;65960;43.502;3.712;2022-12-13T05:39:01;3.40;93.70
71727;DHT22;65960;43.502;3.712;2022-12-13T05:41:30;3.40;93.70
71727;DHT22;65960;43.502;3.712;2022-12-13T05:43:56;3.40;93.70
71727;DHT22;65960;43.502;3.712;2022-12-13T05:46:22;3.40;93.70
71727;DHT22;65960;43.502;3.712;2022-12-13T05:48:48;3.40;93.80
71727;DHT22;65960;43.502;3.712;2022-12-13T05:51:14;3.40;93.70
71727;DHT22;65960;43.502;3.712;2022-12-13T05:53:40;3.40;93.70
71727;DHT22;65960;43.502;3.712;2022-12-13T05:56:06;3.40;93.70
71727;DHT22;65960;43.502;3.712;2022-12-13T05:58:33;3.50;93.80
71727;DHT22;65960;43.502;3.712;2022-12-13T06:01:10;3.40;93.70
71727;DHT22;65960;43.502;3.712;2022-12-13T06:03:37;3.40;93.70
71727;DHT22;65960;43.502;3.712;2022-12-13T06:06:04;3.50;93.80
71727;DHT22;65960;43.502;3.712;2022-12-13T06:08:30;3.50;93.80
71727;DHT22;65960;43.502;3.712;2022-12-13T06:10:58;3.40;93.80
71727;DHT22;65960;43.502;3.712;2022-12-13T06:13:24;3.50;93.80
71727;DHT22;65960;43.502;3.712;2022-12-13T06:15:50;3.40;93.80
71727;DHT22;65960;43.502;3.712;2022-12-13T06:18:16;3.40;93.80
71727;DHT22;65960;43.502;3.712;2022-12-13T06:20:42;3.40;93.80
71727;DHT22;65960;43.502;3.712;2022-12-13T06:23:07;3.50;93.80
71727;DHT22;65960;43.502;3.712;2022-12-13T06:25:35;3.50;93.80
71727;DHT22;65960;43.502;3.712;2022-12-13T06:28:01;3.50;93.80
71727;DHT22;65960;43.502;3.712;2022-12-13T06:30:30;3.50;93.80
71727;DHT22;65960;43.502;3.712;2022-12-13T06:32:56;3.50;93.80
71727;DHT22;65960;43.502;3.712;2022-12-13T06:35:22;3.50;93.80
71727;DHT22;65960;43.502;3.712;2022-12-13T06:37:51;3.60;93.80
71727;DHT22;65960;43.502;3.712;2022-12-13T06:40:17;3.60;93.90
71727;DHT22;65960;43.502;3.712;2022-12-13T06:42:42;3.60;93.80
71727;DHT22;65960;43.502;3.712;2022-12-13T06:45:10;3.50;93.90
71727;DHT22;65960;43.502;3.712;2022-12-13T06:47:36;3.50;93.90
71727;DHT22;65960;43.502;3.712;2022-12-13T06:50:01;3.50;93.80
71727;DHT22;65960;43.502;3.712;2022-12-13T06:52:27;3.50;93.90
71727;DHT22;65960;43.502;3.712;2022-12-13T06:54:53;3.50;93.90
71727;DHT22;65960;43.502;3.712;2022-12-13T06:57:19;3.50;93.90
71727;DHT22;65960;43.502;3.712;2022-12-13T06:59:45;3.60;93.90
71727;DHT22;65960;43.502;3.712;2022-12-13T07:02:11;3.60;93.90
71727;DHT22;65960;43.502;3.712;2022-12-13T07:04:37;3.70;93.90
71727;DHT22;65960;43.502;3.712;2022-12-13T07:07:02;3.70;93.90
71727;DHT22;65960;43.502;3.712;2022-12-13T07:09:29;3.70;93.90
71727;DHT22;65960;43.502;3.712;2022-12-13T07:11:55;3.70;93.90
71727;DHT22;65960;43.502;3.712;2022-12-13T07:14:21;3.70;94.00
71727;DHT22;65960;43.502;3.712;2022-12-13T07:16:46;3.70;93.90
71727;DHT22;65960;43.502;3.712;2022-12-13T07:19:12;3.70;94.00
71727;DHT22;65960;43.502;3.712;2022-12-13T07:21:38;3.70;93.90
71727;DHT22;65960;43.502;3.712;2022-12-13T07:24:04;3.80;94.00
71727;DHT22;65960;43.502;3.712;2022-12-13T07:26:30;3.80;94.00
71727;DHT22;65960;43.502;3.712;2022-12-13T07:28:56;3.80;94.00
71727;DHT22;65960;43.502;3.712;2022-12-13T07:31:23;3.80;94.00
71727;DHT22;65960;43.502;3.712;2022-12-13T07:33:49;3.90;94.00
71727;DHT22;65960;43.502;3.712;2022-12-13T07:36:17;3.80;94.10
71727;DHT22;65960;43.502;3.712;2022-12-13T07:38:43;3.90;94.00
71727;DHT22;65960;43.502;3.712;2022-12-13T07:41:10;3.90;94.00
71727;DHT22;65960;43.502;3.712;2022-12-13T07:43:36;3.90;94.10
71727;DHT22;65960;43.502;3.712;2022-12-13T07:46:04;3.90;94.10
71727;DHT22;65960;43.502;3.712;2022-12-13T07:48:30;3.90;94.10
71727;DHT22;65960;43.502;3.712;2022-12-13T07:51:01;4.00;94.10
71727;DHT22;65960;43.502;3.712;2022-12-13T07:53:28;4.00;94.10
71727;DHT22;65960;43.502;3.712;2022-12-13T07:55:54;4.00;94.10
71727;DHT22;65960;43.502;3.712;2022-12-13T07:58:19;4.00;94.10
71727;DHT22;65960;43.502;3.712;2022-12-13T08:00:45;4.00;94.10
71727;DHT22;65960;43.502;3.712;2022-12-13T08:03:12;4.10;94.20
71727;DHT22;65960;43.502;3.712;2022-12-13T08:05:38;4.10;94.20
71727;DHT22;65960;43.502;3.712;2022-12-13T08:08:05;4.00;94.10
71727;DHT22;65960;43.502;3.712;2022-12-13T08:10:34;4.00;94.10
71727;DHT22;65960;43.502;3.712;2022-12-13T08:13:03;4.00;94.10
71727;DHT22;65960;43.502;3.712;2022-12-13T08:15:29;4.00;94.20
71727;DHT22;65960;43.502;3.712;2022-12-13T08:17:55;4.00;94.20
71727;DHT22;65960;43.502;3.712;2022-12-13T08:20:21;4.10;94.20
71727;DHT22;65960;43.502;3.712;2022-12-13T08:22:54;4.10;94.20
71727;DHT22;65960;43.502;3.712;2022-12-13T08:25:20;4.10;94.20
71727;DHT22;65960;43.502;3.712;2022-12-13T08:27:46;4.10;94.20
71727;DHT22;65960;43.502;3.712;2022-12-13T08:30:12;4.10;94.20
71727;DHT22;65960;43.502;3.712;2022-12-13T08:32:38;4.10;94.20
71727;DHT22;65960;43.502;3.712;2022-12-13T08:35:07;4.10;94.30
71727;DHT22;65960;43.502;3.712;2022-12-13T08:37:32;4.10;94.30
71727;DHT22;65960;43.502;3.712;2022-12-13T08:39:58;4.10;94.20
71727;DHT22;65960;43.502;3.712;2022-12-13T08:42:24;4.20;94.30
71727;DHT22;65960;43.502;3.712;2022-12-13T08:44:51;4.20;94.30
71727;DHT22;65960;43.502;3.712;2022-12-13T08:47:21;4.20;94.30
71727;DHT22;65960;43.502;3.712;2022-12-13T08:49:47;4.20;94.30
71727;DHT22;65960;43.502;3.712;2022-12-13T08:52:13;4.20;94.30
71727;DHT22;65960;43.502;3.712;2022-12-13T08:54:39;4.20;94.30
71727;DHT22;65960;43.502;3.712;2022-12-13T08:57:04;4.20;94.30
71727;DHT22;65960;43.502;3.712;2022-12-13T08:59:30;4.30;94.30
71727;DHT22;65960;43.502;3.712;2022-12-13T09:01:56;4.30;94.40
71727;DHT22;65960;43.502;3.712;2022-12-13T09:04:22;4.30;94.30
71727;DHT22;65960;43.502;3.712;2022-12-13T09:06:47;4.30;94.30
71727;DHT22;65960;43.502;3.712;2022-12-13T09:09:13;4.30;94.40
71727;DHT22;65960;43.502;3.712;2022-12-13T09:11:39;4.40;94.40
71727;DHT22;65960;43.502;3.712;2022-12-13T09:14:06;4.40;94.40
71727;DHT22;65960;43.502;3.712;2022-12-13T09:16:32;4.40;94.40
71727;DHT22;65960;43.502;3.712;2022-12-13T09:19:01;4.40;94.40
71727;DHT22;65960;43.502;3.712;2022-12-13T09:21:27;4.50;94.40
71727;DHT22;65960;43.502;3.712;2022-12-13T09:23:54;4.60;94.40
71727;DHT22;65960;43.502;3.712;2022-12-13T09:26:20;4.60;94.50
71727;DHT22;65960;43.502;3.712;2022-12-13T09:28:46;4.60;94.50
71727;DHT22;65960;43.502;3.712;2022-12-13T09:31:18;4.60;94.50
71727;DHT22;65960;43.502;3.712;2022-12-13T09:33:45;4.60;94.50
71727;DHT22;65960;43.502;3.712;2022-12-13T09:36:13;4.60;94.50
71727;DHT22;65960;43.502;3.712;2022-12-13T09:38:39;4.70;94.50
71727;DHT22;65960;43.502;3.712;2022-12-13T09:41:30;4.70;94.50
71727;DHT22;65960;43.502;3.712;2022-12-13T09:44:03;4.80;94.60
71727;DHT22;65960;43.502;3.712;2022-12-13T09:46:37;4.80;94.60
71727;DHT22;65960;43.502;3.712;2022-12-13T09:49:09;4.80;94.60
71727;DHT22;65960;43.502;3.712;2022-12-13T09:51:37;5.00;94.60
71727;DHT22;65960;43.502;3.712;2022-12-13T09:54:03;5.00;94.60
71727;DHT22;65960;43.502;3.712;2022-12-13T09:56:29;4.90;94.70
71727;DHT22;65960;43.502;3.712;2022-12-13T09:58:55;4.90;94.60
71727;DHT22;65960;43.502;3.712;2022-12-13T10:01:22;4.90;94.60
71727;DHT22;65960;43.502;3.712;2022-12-13T10:03:53;4.90;94.70
71727;DHT22;65960;43.502;3.712;2022-12-13T10:06:22;5.00;94.70
71727;DHT22;65960;43.502;3.712;2022-12-13T10:08:51;5.00;94.70
71727;DHT22;65960;43.502;3.712;2022-12-13T10:11:18;5.00;94.70
71727;DHT22;65960;43.502;3.712;2022-12-13T10:13:45;5.00;94.70
71727;DHT22;65960;43.502;3.712;2022-12-13T10:16:18;5.00;94.70
71727;DHT22;65960;43.502;3.712;2022-12-13T10:18:44;5.00;94.70
71727;DHT22;65960;43.502;3.712;2022-12-13T10:21:24;5.10;94.70
71727;DHT22;65960;43.502;3.712;2022-12-13T10:23:53;5.10;94.70
71727;DHT22;65960;43.502;3.712;2022-12-13T10:26:19;5.10;94.70
71727;DHT22;65960;43.502;3.712;2022-12-13T10:28:46;5.10;94.70
71727;DHT22;65960;43.502;3.712;2022-12-13T10:31:17;5.10;94.70
71727;DHT22;65960;43.502;3.712;2022-12-13T10:33:52;5.20;94.70
71727;DHT22;65960;43.502;3.712;2022-12-13T10:36:33;5.20;94.70
71727;DHT22;65960;43.502;3.712;2022-12-13T10:39:00;5.20;94.80
71727;DHT22;65960;43.502;3.712;2022-12-13T10:41:38;5.30;94.80
71727;DHT22;65960;43.502;3.712;2022-12-13T10:44:23;5.30;94.80
71727;DHT22;65960;43.502;3.712;2022-12-13T10:46:52;5.30;94.80
71727;DHT22;65960;43.502;3.712;2022-12-13T10:49:24;5.30;94.80
71727;DHT22;65960;43.502;3.712;2022-12-13T10:51:52;5.40;94.80
71727;DHT22;65960;43.502;3.712;2022-12-13T10:54:29;5.30;94.80
71727;DHT22;65960;43.502;3.712;2022-12-13T10:56:56;5.40;94.80
71727;DHT22;65960;43.502;3.712;2022-12-13T10:59:36;5.40;94.80
71727;DHT22;65960;43.502;3.712;2022-12-13T11:04:53;5.30;94.80
71727;DHT22;65960;43.502;3.712;2022-12-13T11:07:32;5.30;94.80
71727;DHT22;65960;43.502;3.712;2022-12-13T11:10:15;5.30;94.80
71727;DHT22;65960;43.502;3.712;2022-12-13T11:12:42;5.40;94.80
71727;DHT22;65960;43.502;3.712;2022-12-13T11:15:16;5.40;94.80
71727;DHT22;65960;43.502;3.712;2022-12-13T11:17:51;5.50;94.80
71727;DHT22;65960;43.502;3.712;2022-12-13T11:20:38;5.50;94.80
71727;DHT22;65960;43.502;3.712;2022-12-13T11:23:25;5.50;94.80
71727;DHT22;65960;43.502;3.712;2022-12-13T11:26:00;5.60;94.90
71727;DHT22;65960;43.502;3.712;2022-12-13T11:31:10;5.70;94.90
71727;DHT22;65960;43.502;3.712;2022-12-13T11:38:51;5.70;94.90
71727;DHT22;65960;43.502;3.712;2022-12-13T11:41:48;5.70;94.90
71727;DHT22;65960;43.502;3.712;2022-12-13T11:46:45;5.80;95.00
71727;DHT22;65960;43.502;3.712;2022-12-13T11:49:17;5.80;95.00
71727;DHT22;65960;43.502;3.712;2022-12-13T11:54:42;6.00;95.00
71727;DHT22;65960;43.502;3.712;2022-12-13T12:00:28;6.20;95.00
71727;DHT22;65960;43.502;3.712;2022-12-13T12:03:05;6.30;95.00
71727;DHT22;65960;43.502;3.712;2022-12-13T12:05:36;6.30;95.10
71727;DHT22;65960;43.502;3.712;2022-12-13T12:11:04;6.20;95.10
71727;DHT22;65960;43.502;3.712;2022-12-13T12:13:42;6.20;95.10
71727;DHT22;65960;43.502;3.712;2022-12-13T12:18:58;6.30;95.10
71727;DHT22;65960;43.502;3.712;2022-12-13T12:21:37;6.30;95.10
71727;DHT22;65960;43.502;3.712;2022-12-13T12:32:49;6.50;95.10
71727;DHT22;65960;43.502;3.712;2022-12-13T12:48:22;6.40;95.10
71727;DHT22;65960;43.502;3.712;2022-12-13T12:51:15;6.40;95.10
71727;DHT22;65960;43.502;3.712;2022-12-13T12:53:48;6.40;95.20
71727;DHT22;65960;43.502;3.712;2022-12-13T12:59:13;6.50;95.10
71727;DHT22;65960;43.502;3.712;2022-12-13T13:04:10;6.50;95.10
71727;DHT22;65960;43.502;3.712;2022-12-13T13:06:40;6.50;95.10
71727;DHT22;65960;43.502;3.712;2022-12-13T13:09:10;6.60;95.10
71727;DHT22;65960;43.502;3.712;2022-12-13T13:11:39;6.50;95.10
71727;DHT22;65960;43.502;3.712;2022-12-13T13:16:53;6.50;95.20
71727;DHT22;65960;43.502;3.712;2022-12-13T13:21:53;6.50;95.10
71727;DHT22;65960;43.502;3.712;2022-12-13T13:24:22;6.50;95.10
71727;DHT22;65960;43.502;3.712;2022-12-13T13:26:50;6.50;95.10
71727;DHT22;65960;43.502;3.712;2022-12-13T13:34:48;6.40;95.10
71727;DHT22;65960;43.502;3.712;2022-12-13T13:42:20;6.50;95.10
71727;DHT22;65960;43.502;3.712;2022-12-13T14:27:14;6.40;95.10
71727;DHT22;65960;43.502;3.712;2022-12-13T14:29:43;6.40;95.10
71727;DHT22;65960;43.502;3.712;2022-12-13T14:32:16;6.40;95.10
71727;DHT22;65960;43.502;3.712;2022-12-13T14:34:44;6.40;95.10
71727;DHT22;65960;43.502;3.712;2022-12-13T14:39:46;6.40;95.10
71727;DHT22;65960;43.502;3.712;2022-12-13T14:42:31;6.30;95.10
71727;DHT22;65960;43.502;3.712;2022-12-13T14:47:42;6.30;95.10
71727;DHT22;65960;43.502;3.712;2022-12-13T14:50:11;6.30;95.10
71727;DHT22;65960;43.502;3.712;2022-12-13T14:52:40;6.30;95.10
71727;DHT22;65960;43.502;3.712;2022-12-13T14:57:51;6.30;95.10
71727;DHT22;65960;43.502;3.712;2022-12-13T15:02:54;6.30;95.10
71727;DHT22;65960;43.502;3.712;2022-12-13T15:05:35;6.30;95.10
71727;DHT22;65960;43.502;3.712;2022-12-13T15:08:02;6.20;95.10
71727;DHT22;65960;43.502;3.712;2022-12-13T15:15:51;6.20;95.10
71727;DHT22;65960;43.502;3.712;2022-12-13T15:18:24;6.10;95.10
71727;DHT22;65960;43.502;3.712;2022-12-13T15:20:52;6.10;95.10
71727;DHT22;65960;43.502;3.712;2022-12-13T15:23:28;6.10;95.10
71727;DHT22;65960;43.502;3.712;2022-12-13T15:25:58;6.10;95.00
71727;DHT22;65960;43.502;3.712;2022-12-13T15:28:36;6.10;95.10
71727;DHT22;65960;43.502;3.712;2022-12-13T15:31:04;6.10;95.10
71727;DHT22;65960;43.502;3.712;2022-12-13T15:33:30;6.00;95.10
71727;DHT22;65960;43.502;3.712;2022-12-13T15:36:06;6.00;95.10
71727;DHT22;65960;43.502;3.712;2022-12-13T15:38:34;6.10;95.10
71727;DHT22;65960;43.502;3.712;2022-12-13T15:41:02;6.10;95.10
71727;DHT22;65960;43.502;3.712;2022-12-13T15:43:41;6.10;95.10
71727;DHT22;65960;43.502;3.712;2022-12-13T15:46:08;6.10;95.10
71727;DHT22;65960;43.502;3.712;2022-12-13T15:48:42;6.00;95.10
71727;DHT22;65960;43.502;3.712;2022-12-13T15:51:12;6.00;95.10
71727;DHT22;65960;43.502;3.712;2022-12-13T15:53:42;6.00;95.10
71727;DHT22;65960;43.502;3.712;2022-12-13T15:59:32;6.00;95.10
71727;DHT22;65960;43.502;3.712;2022-12-13T16:02:00;6.00;95.10
71727;DHT22;65960;43.502;3.712;2022-12-13T16:04:31;6.00;95.10
71727;DHT22;65960;43.502;3.712;2022-12-13T16:07:00;6.00;95.10
71727;DHT22;65960;43.502;3.712;2022-12-13T16:09:32;6.00;95.10
71727;DHT22;65960;43.502;3.712;2022-12-13T16:12:01;6.00;95.10
71727;DHT22;65960;43.502;3.712;2022-12-13T16:16:59;6.00;95.10
71727;DHT22;65960;43.502;3.712;2022-12-13T16:19:26;6.00;95.10
71727;DHT22;65960;43.502;3.712;2022-12-13T16:21:52;6.00;95.10
71727;DHT22;65960;43.502;3.712;2022-12-13T16:24:18;6.00;95.10
71727;DHT22;65960;43.502;3.712;2022-12-13T16:26:45;6.00;95.10
71727;DHT22;65960;43.502;3.712;2022-12-13T16:29:17;6.00;95.10
71727;DHT22;65960;43.502;3.712;2022-12-13T16:31:44;6.00;95.10
71727;DHT22;65960;43.502;3.712;2022-12-13T16:34:10;6.00;95.10
71727;DHT22;65960;43.502;3.712;2022-12-13T16:36:36;6.00;95.10
71727;DHT22;65960;43.502;3.712;2022-12-13T16:39:03;6.00;95.10
71727;DHT22;65960;43.502;3.712;2022-12-13T16:41:33;6.00;95.10
71727;DHT22;65960;43.502;3.712;2022-12-13T16:44:01;6.00;95.10
71727;DHT22;65960;43.502;3.712;2022-12-13T16:46:27;6.00;95.10
71727;DHT22;65960;43.502;3.712;2022-12-13T16:48:53;6.00;95.10
71727;DHT22;65960;43.502;3.712;2022-12-13T16:51:20;6.00;95.10
71727;DHT22;65960;43.502;3.712;2022-12-13T16:53:46;6.00;95.10
71727;DHT22;65960;43.502;3.712;2022-12-13T16:56:12;6.00;95.10
71727;DHT22;65960;43.502;3.712;2022-12-13T16:58:41;6.00;95.10
71727;DHT22;65960;43.502;3.712;2022-12-13T17:01:11;6.00;95.10
71727;DHT22;65960;43.502;3.712;2022-12-13T17:03:38;6.00;95.10
71727;DHT22;65960;43.502;3.712;2022-12-13T17:06:05;6.10;95.10
71727;DHT22;65960;43.502;3.712;2022-12-13T17:08:31;6.10;95.10
71727;DHT22;65960;43.502;3.712;2022-12-13T17:10:58;6.10;95.10
71727;DHT22;65960;43.502;3.712;2022-12-13T17:13:25;6.10;95.10
71727;DHT22;65960;43.502;3.712;2022-12-13T17:15:50;6.10;95.10
71727;DHT22;65960;43.502;3.712;2022-12-13T17:18:16;6.10;95.10
71727;DHT22;65960;43.502;3.712;2022-12-13T17:20:43;6.10;95.10
71727;DHT22;65960;43.502;3.712;2022-12-13T17:23:09;6.10;95.10
71727;DHT22;65960;43.502;3.712;2022-12-13T17:25:38;6.10;95.10
71727;DHT22;65960;43.502;3.712;2022-12-13T17:28:06;6.10;95.10
71727;DHT22;65960;43.502;3.712;2022-12-13T17:30:31;6.20;95.10
71727;DHT22;65960;43.502;3.712;2022-12-13T17:33:01;6.20;95.10
71727;DHT22;65960;43.502;3.712;2022-12-13T17:35:27;6.20;95.20
71727;DHT22;65960;43.502;3.712;2022-12-13T17:37:53;6.20;95.10
71727;DHT22;65960;43.502;3.712;2022-12-13T17:40:19;6.20;95.10
71727;DHT22;65960;43.502;3.712;2022-12-13T17:42:48;6.20;95.10
71727;DHT22;65960;43.502;3.712;2022-12-13T17:45:15;6.20;95.10
71727;DHT22;65960;43.502;3.712;2022-12-13T17:47:44;6.20;95.10
71727;DHT22;65960;43.502;3.712;2022-12-13T17:50:10;6.20;95.10
71727;DHT22;65960;43.502;3.712;2022-12-13T17:52:37;6.30;95.10
71727;DHT22;65960;43.502;3.712;2022-12-13T17:55:04;6.30;95.10
71727;DHT22;65960;43.502;3.712;2022-12-13T17:57:30;6.30;95.10
71727;DHT22;65960;43.502;3.712;2022-12-13T17:59:58;6.30;95.10
71727;DHT22;65960;43.502;3.712;2022-12-13T18:02:23;6.30;95.10
71727;DHT22;65960;43.502;3.712;2022-12-13T18:04:50;6.30;95.10
71727;DHT22;65960;43.502;3.712;2022-12-13T18:07:15;6.30;95.10
71727;DHT22;65960;43.502;3.712;2022-12-13T18:09:41;6.30;95.10
71727;DHT22;65960;43.502;3.712;2022-12-13T18:12:07;6.30;95.20
71727;DHT22;65960;43.502;3.712;2022-12-13T18:14:33;6.30;95.10
71727;DHT22;65960;43.502;3.712;2022-12-13T18:16:59;6.30;95.10
71727;DHT22;65960;43.502;3.712;2022-12-13T18:19:25;6.30;95.10
71727;DHT22;65960;43.502;3.712;2022-12-13T18:21:55;6.30;95.10
71727;DHT22;65960;43.502;3.712;2022-12-13T18:24:21;6.30;95.20